Time;durP1;ratioP1;P1;durP2;ratioP2;P2;SDS_P1;SDS_P2;PMS_P1;PMS_P2;Temp;Humidity;BMP_temperature;BMP_pressure;BME280_temperature;BME280_humidity;BME280_pressure;Samples;Min_cycle;Max_cycle;Signal;HPM_P1;HPM_P2
2023/03/13 00:01:10;;;;;;;3.13;1.20;;;;;;;;;;5040420;28;20206;-73
2023/03/13 00:03:36;;;;;;;1.60;1.20;;;;;;;;;;5048962;28;20582;-73
2023/03/13 00:06:03;;;;;;;1.80;1.37;;;;;;;;;;5051806;28;20207;-73
2023/03/13 00:08:30;;;;;;;3.00;1.30;;;;;;;;;;5050622;28;20444;-73
2023/03/13 00:10:56;;;;;;;3.60;1.70;;;;;;;;;;5052368;28;20278;-73
2023/03/13 00:13:23;;;;;;;4.20;1.60;;;;;;;;;;5052401;28;20206;-73
2023/03/13 00:15:49;;;;;;;2.37;1.50;;;;;;;;;;5048096;28;20262;-73
2023/03/13 00:18:15;;;;;;;5.27;1.50;;;;;;;;;;5052431;28;20200;-73
2023/03/13 00:20:41;;;;;;;3.27;1.37;;;;;;;;;;5048174;28;20702;-74
2023/03/13 00:23:08;;;;;;;3.50;1.63;;;;;;;;;;5046716;28;20262;-73
2023/03/13 00:25:35;;;;;;;3.63;1.40;;;;;;;;;;5047224;28;20219;-73
2023/03/13 00:28:02;;;;;;;2.77;1.53;;;;;;;;;;5050239;28;20208;-73
2023/03/13 00:30:28;;;;;;;5.37;1.50;;;;;;;;;;5045638;28;20726;-73
2023/03/13 00:32:55;;;;;;;4.57;1.33;;;;;;;;;;5047283;28;20219;-74
2023/03/13 00:35:21;;;;;;;6.30;1.53;;;;;;;;;;5049349;28;20280;-73
2023/03/13 00:37:47;;;;;;;1.83;1.40;;;;;;;;;;5045756;28;20188;-73
2023/03/13 00:40:14;;;;;;;1.80;1.40;;;;;;;;;;5044071;28;20198;-73
2023/03/13 00:42:41;;;;;;;3.00;1.80;;;;;;;;;;5047264;28;20245;-73
2023/03/13 00:45:08;;;;;;;2.33;1.60;;;;;;;;;;5046153;28;20311;-74
2023/03/13 00:47:34;;;;;;;2.43;1.77;;;;;;;;;;5049091;28;20207;-73
2023/03/13 00:50:01;;;;;;;2.30;1.40;;;;;;;;;;5044066;28;20219;-73
2023/03/13 00:52:30;;;;;;;1.77;1.50;;;;;;;;;;5043787;28;20203;-73
2023/03/13 00:54:56;;;;;;;4.00;1.40;;;;;;;;;;5044000;28;20243;-73
2023/03/13 00:57:23;;;;;;;4.03;1.57;;;;;;;;;;5046841;28;20195;-73
2023/03/13 00:59:50;;;;;;;2.30;1.30;;;;;;;;;;5048796;28;20317;-73
2023/03/13 01:02:17;;;;;;;2.90;1.70;;;;;;;;;;5051972;28;20354;-73
2023/03/13 01:04:43;;;;;;;4.47;1.70;;;;;;;;;;5045916;28;20227;-73
2023/03/13 01:07:09;;;;;;;2.53;1.47;;;;;;;;;;5044253;28;20225;-73
2023/03/13 01:09:35;;;;;;;3.93;1.30;;;;;;;;;;5042419;28;20226;-73
2023/03/13 01:12:02;;;;;;;2.00;1.50;;;;;;;;;;5042009;28;20203;-74
2023/03/13 01:14:30;;;;;;;1.70;1.43;;;;;;;;;;5064697;22;20382;-74
2023/03/13 01:16:58;;;;;;;3.57;1.77;;;;;;;;;;5047419;28;20207;-74
2023/03/13 01:19:24;;;;;;;6.03;1.87;;;;;;;;;;5048535;28;20210;-73
2023/03/13 01:21:50;;;;;;;4.83;1.57;;;;;;;;;;5044616;28;20199;-73
2023/03/13 01:24:18;;;;;;;5.40;2.00;;;;;;;;;;5055622;28;20293;-73
2023/03/13 01:26:44;;;;;;;5.20;2.00;;;;;;;;;;5049575;28;20225;-73
2023/03/13 01:29:11;;;;;;;5.87;2.27;;;;;;;;;;5070655;28;20227;-74
2023/03/13 01:31:37;;;;;;;6.57;1.80;;;;;;;;;;5043191;28;20661;-73
2023/03/13 01:34:07;;;;;;;5.37;2.20;;;;;;;;;;5047426;28;20297;-75
2023/03/13 01:36:35;;;;;;;4.80;1.90;;;;;;;;;;5045734;28;20205;-72
2023/03/13 01:39:03;;;;;;;3.87;1.60;;;;;;;;;;5045712;28;20218;-75
2023/03/13 01:41:30;;;;;;;5.87;2.50;;;;;;;;;;5065312;28;20206;-73
2023/03/13 01:43:56;;;;;;;9.00;2.20;;;;;;;;;;5066680;28;20202;-75
2023/03/13 01:46:26;;;;;;;6.40;2.63;;;;;;;;;;5052266;28;20191;-72
2023/03/13 01:49:03;;;;;;;5.37;2.30;;;;;;;;;;5051059;28;20218;-72
2023/03/13 01:51:36;;;;;;;8.63;2.10;;;;;;;;;;5047907;28;20200;-75
2023/03/13 01:54:04;;;;;;;7.40;2.30;;;;;;;;;;5051415;28;20307;-76
2023/03/13 01:56:34;;;;;;;4.20;1.97;;;;;;;;;;5043220;28;20196;-75
2023/03/13 01:59:01;;;;;;;4.40;1.87;;;;;;;;;;5050836;28;20253;-73
2023/03/13 02:01:28;;;;;;;6.30;2.23;;;;;;;;;;5043082;28;20234;-74
2023/03/13 02:03:56;;;;;;;5.43;2.37;;;;;;;;;;5042699;28;20213;-75
2023/03/13 02:06:22;;;;;;;6.37;2.07;;;;;;;;;;5052914;28;20295;-73
2023/03/13 02:08:53;;;;;;;4.10;2.10;;;;;;;;;;5069976;28;20248;-73
2023/03/13 02:11:23;;;;;;;3.23;1.70;;;;;;;;;;5058113;28;20495;-73
2023/03/13 02:13:50;;;;;;;4.77;2.03;;;;;;;;;;5054336;28;20198;-73
2023/03/13 02:16:17;;;;;;;5.00;2.03;;;;;;;;;;5055494;28;20203;-73
2023/03/13 02:18:48;;;;;;;5.60;1.97;;;;;;;;;;5047302;28;20242;-75
2023/03/13 02:21:18;;;;;;;3.93;2.00;;;;;;;;;;5053093;28;20199;-75
2023/03/13 02:23:50;;;;;;;3.20;1.93;;;;;;;;;;5056253;28;20199;-73
2023/03/13 02:26:17;;;;;;;3.60;2.03;;;;;;;;;;5067630;28;20202;-73
2023/03/13 02:28:44;;;;;;;8.20;2.60;;;;;;;;;;5049222;28;20670;-72
2023/03/13 02:31:14;;;;;;;4.20;2.33;;;;;;;;;;5054780;28;20207;-75
2023/03/13 02:33:41;;;;;;;9.30;2.70;;;;;;;;;;5050691;28;20600;-74
2023/03/13 02:36:13;;;;;;;7.87;2.20;;;;;;;;;;5055216;28;20193;-72
2023/03/13 02:38:43;;;;;;;5.73;2.40;;;;;;;;;;5054670;28;20289;-74
2023/03/13 02:41:10;;;;;;;6.57;2.50;;;;;;;;;;5048080;28;20245;-73
2023/03/13 02:43:38;;;;;;;7.13;2.50;;;;;;;;;;5050425;28;20196;-75
2023/03/13 02:46:07;;;;;;;7.17;3.07;;;;;;;;;;5067600;28;20252;-73
2023/03/13 02:48:37;;;;;;;4.53;2.30;;;;;;;;;;5056652;28;20202;-73
2023/03/13 02:51:06;;;;;;;12.20;2.97;;;;;;;;;;5048683;28;20207;-75
2023/03/13 02:53:33;;;;;;;4.57;1.83;;;;;;;;;;5065776;28;20221;-73
2023/03/13 02:55:59;;;;;;;7.83;2.47;;;;;;;;;;5053713;28;20691;-72
2023/03/13 02:58:26;;;;;;;7.97;2.57;;;;;;;;;;5051154;28;20211;-72
2023/03/13 03:00:54;;;;;;;6.10;2.37;;;;;;;;;;5068108;28;20187;-72
2023/03/13 03:03:21;;;;;;;5.33;2.40;;;;;;;;;;5050321;28;20202;-73
2023/03/13 03:05:47;;;;;;;8.33;2.60;;;;;;;;;;5054365;28;20199;-74
2023/03/13 03:08:13;;;;;;;6.23;2.47;;;;;;;;;;5055407;28;20751;-72
2023/03/13 03:10:40;;;;;;;6.97;1.97;;;;;;;;;;5051893;28;20263;-75
2023/03/13 03:13:06;;;;;;;7.30;2.20;;;;;;;;;;5050763;28;20234;-72
2023/03/13 03:15:32;;;;;;;7.57;2.47;;;;;;;;;;5070313;28;20211;-73
2023/03/13 03:18:00;;;;;;;4.43;2.10;;;;;;;;;;5052206;28;20203;-73
2023/03/13 03:20:26;;;;;;;6.77;2.43;;;;;;;;;;5053013;28;20218;-72
2023/03/13 03:22:53;;;;;;;8.70;2.30;;;;;;;;;;5051223;28;20195;-72
2023/03/13 03:25:19;;;;;;;6.33;2.43;;;;;;;;;;5049050;28;20199;-73
2023/03/13 03:27:47;;;;;;;5.77;2.53;;;;;;;;;;5053117;28;20711;-74
2023/03/13 03:30:14;;;;;;;4.87;2.30;;;;;;;;;;5058468;28;20284;-73
2023/03/13 03:32:41;;;;;;;6.07;2.20;;;;;;;;;;5046182;28;20289;-72
2023/03/13 03:35:09;;;;;;;7.83;2.73;;;;;;;;;;5049349;28;20633;-73
2023/03/13 03:37:35;;;;;;;5.37;2.37;;;;;;;;;;5053264;28;20190;-74
2023/03/13 03:40:04;;;;;;;6.27;2.70;;;;;;;;;;5050791;28;20250;-73
2023/03/13 03:42:33;;;;;;;5.03;2.60;;;;;;;;;;5067870;28;20249;-75
2023/03/13 03:44:59;;;;;;;6.37;2.20;;;;;;;;;;5047725;28;20190;-73
2023/03/13 03:47:26;;;;;;;8.70;2.57;;;;;;;;;;5048249;28;20293;-73
2023/03/13 03:49:52;;;;;;;6.90;1.90;;;;;;;;;;5048211;28;20225;-75
2023/03/13 03:52:20;;;;;;;7.37;2.67;;;;;;;;;;5056431;28;20288;-73
2023/03/13 03:54:48;;;;;;;4.87;2.23;;;;;;;;;;5050720;28;20203;-73
2023/03/13 03:57:16;;;;;;;10.93;2.63;;;;;;;;;;5050327;28;20257;-75
2023/03/13 03:59:44;;;;;;;5.23;2.20;;;;;;;;;;5067292;28;20246;-73
2023/03/13 04:02:11;;;;;;;4.93;2.07;;;;;;;;;;5051419;28;20298;-73
2023/03/13 04:04:39;;;;;;;10.90;2.47;;;;;;;;;;5046287;28;20740;-72
2023/03/13 04:07:13;;;;;;;5.43;2.50;;;;;;;;;;5051185;28;20189;-73
2023/03/13 04:09:41;;;;;;;9.33;2.47;;;;;;;;;;5045796;28;20720;-73
2023/03/13 04:12:11;;;;;;;11.37;2.47;;;;;;;;;;5050302;28;20290;-73
2023/03/13 04:14:42;;;;;;;4.87;2.00;;;;;;;;;;5050259;28;20203;-75
2023/03/13 04:17:10;;;;;;;8.30;2.33;;;;;;;;;;5047998;28;20206;-76
2023/03/13 04:19:37;;;;;;;8.87;2.70;;;;;;;;;;5069956;28;20213;-74
2023/03/13 04:22:04;;;;;;;11.27;2.43;;;;;;;;;;5048547;28;20204;-73
2023/03/13 04:24:31;;;;;;;13.20;2.67;;;;;;;;;;5047879;28;20583;-72
2023/03/13 04:27:00;;;;;;;8.77;2.30;;;;;;;;;;5053178;28;20199;-72
2023/03/13 04:29:30;;;;;;;9.47;2.87;;;;;;;;;;5051887;28;20840;-72
2023/03/13 04:32:02;;;;;;;6.17;2.27;;;;;;;;;;5052536;28;20217;-72
2023/03/13 04:35:00;;;;;;;8.13;2.80;;;;;;;;;;5049319;28;20235;-74
2023/03/13 04:37:39;;;;;;;8.37;2.33;;;;;;;;;;5049662;28;20191;-72
2023/03/13 04:40:14;;;;;;;5.23;2.43;;;;;;;;;;5051706;28;20214;-72
2023/03/13 04:42:54;;;;;;;6.57;2.43;;;;;;;;;;5062000;28;20206;-72
2023/03/13 04:45:55;;;;;;;12.60;2.40;;;;;;;;;;5055607;28;20210;-73
2023/03/13 04:48:42;;;;;;;8.93;2.67;;;;;;;;;;5051901;28;20729;-74
2023/03/13 04:51:25;;;;;;;6.73;2.50;;;;;;;;;;5048216;28;20222;-72
2023/03/13 04:54:10;;;;;;;10.97;2.77;;;;;;;;;;5053055;28;20583;-72
2023/03/13 04:56:43;;;;;;;8.63;2.50;;;;;;;;;;5046791;28;20195;-74
2023/03/13 04:59:34;;;;;;;9.53;2.63;;;;;;;;;;5058744;28;20218;-73
2023/03/13 05:02:20;;;;;;;8.97;3.20;;;;;;;;;;5043993;28;20202;-72
2023/03/13 05:05:05;;;;;;;11.03;4.10;;;;;;;;;;5070215;28;20356;-73
2023/03/13 05:07:54;;;;;;;5.80;2.63;;;;;;;;;;5027288;28;20548;-72
2023/03/13 05:10:37;;;;;;;15.07;5.23;;;;;;;;;;5047464;28;20222;-73
2023/03/13 05:13:15;;;;;;;16.90;6.30;;;;;;;;;;5049251;28;20227;-73
2023/03/13 05:16:03;;;;;;;27.63;9.53;;;;;;;;;;5048391;28;20460;-72
2023/03/13 05:18:50;;;;;;;20.73;9.30;;;;;;;;;;5060776;28;20231;-77
2023/03/13 05:21:26;;;;;;;8.53;3.30;;;;;;;;;;5041545;28;20216;-74
2023/03/13 05:24:31;;;;;;;15.03;5.03;;;;;;;;;;5007572;28;20236;-76
2023/03/13 05:27:09;;;;;;;11.57;3.20;;;;;;;;;;4990111;28;20203;-72
2023/03/13 05:29:45;;;;;;;11.87;4.00;;;;;;;;;;5026112;28;20309;-73
2023/03/13 05:32:32;;;;;;;11.93;3.63;;;;;;;;;;5064258;28;20210;-75
2023/03/13 05:35:15;;;;;;;9.23;2.50;;;;;;;;;;5046301;28;20412;-75
2023/03/13 05:37:48;;;;;;;6.97;3.80;;;;;;;;;;5044324;28;20198;-73
2023/03/13 05:40:28;;;;;;;7.87;3.37;;;;;;;;;;5048049;28;20211;-74
2023/03/13 05:43:23;;;;;;;9.77;1.97;;;;;;;;;;5057527;28;20208;-73
2023/03/13 05:46:07;;;;;;;11.83;4.67;;;;;;;;;;5054269;28;20206;-75
2023/03/13 05:48:47;;;;;;;7.50;2.33;;;;;;;;;;5050978;28;20202;-72
2023/03/13 05:51:35;;;;;;;8.80;3.37;;;;;;;;;;5057188;28;20226;-74
2023/03/13 05:54:18;;;;;;;14.50;4.33;;;;;;;;;;5049548;28;20742;-73
2023/03/13 05:57:20;;;;;;;13.33;5.30;;;;;;;;;;4991334;28;20733;-74
2023/03/13 05:59:56;;;;;;;6.77;2.47;;;;;;;;;;5053731;28;20287;-78
2023/03/13 06:03:01;;;;;;;8.77;2.60;;;;;;;;;;5052916;28;20209;-75
2023/03/13 06:05:37;;;;;;;8.47;2.50;;;;;;;;;;5045740;28;20248;-76
2023/03/13 06:08:11;;;;;;;10.90;3.13;;;;;;;;;;5044978;28;20277;-72
2023/03/13 06:10:38;;;;;;;7.23;2.13;;;;;;;;;;5053920;28;20214;-73
2023/03/13 06:13:04;;;;;;;7.47;1.97;;;;;;;;;;5053333;28;20203;-74
2023/03/13 06:15:33;;;;;;;12.83;2.23;;;;;;;;;;5050504;28;20255;-72
2023/03/13 06:18:11;;;;;;;10.20;2.37;;;;;;;;;;5052826;28;20202;-72
2023/03/13 06:20:39;;;;;;;9.13;2.43;;;;;;;;;;5066314;28;20213;-72
2023/03/13 06:23:05;;;;;;;6.60;2.00;;;;;;;;;;5050192;28;20291;-74
2023/03/13 06:25:34;;;;;;;9.47;2.77;;;;;;;;;;5065919;28;20716;-73
2023/03/13 06:28:00;;;;;;;8.33;2.03;;;;;;;;;;5069193;28;20199;-73
2023/03/13 06:30:27;;;;;;;8.37;2.53;;;;;;;;;;5064980;28;20377;-75
2023/03/13 06:32:53;;;;;;;6.40;2.57;;;;;;;;;;5062962;28;20216;-75
2023/03/13 06:35:19;;;;;;;9.23;2.27;;;;;;;;;;5066929;28;20207;-73
2023/03/13 06:37:48;;;;;;;10.77;2.50;;;;;;;;;;5052266;28;20293;-75
2023/03/13 06:40:14;;;;;;;9.63;3.23;;;;;;;;;;5065761;28;20303;-73
2023/03/13 06:42:41;;;;;;;10.37;2.87;;;;;;;;;;5066983;28;20212;-73
2023/03/13 06:45:08;;;;;;;6.03;2.80;;;;;;;;;;5069375;28;20200;-73
2023/03/13 06:47:34;;;;;;;7.77;2.20;;;;;;;;;;5053447;28;20518;-74
2023/03/13 06:50:00;;;;;;;6.60;2.20;;;;;;;;;;5051862;28;20229;-74
2023/03/13 06:52:31;;;;;;;11.87;2.80;;;;;;;;;;5067893;28;20223;-73
2023/03/13 06:54:59;;;;;;;6.17;2.20;;;;;;;;;;5068860;28;20300;-73
2023/03/13 06:57:26;;;;;;;8.73;3.00;;;;;;;;;;5068845;28;20209;-73
2023/03/13 06:59:52;;;;;;;10.77;3.30;;;;;;;;;;5068592;28;20567;-72
2023/03/13 07:02:18;;;;;;;7.97;3.33;;;;;;;;;;5068029;28;20562;-72
2023/03/13 07:04:45;;;;;;;6.47;2.53;;;;;;;;;;5070391;28;20680;-72
2023/03/13 07:07:12;;;;;;;7.43;2.30;;;;;;;;;;5068937;28;20201;-72
2023/03/13 07:09:39;;;;;;;7.67;2.20;;;;;;;;;;5066543;28;20220;-72
2023/03/13 07:12:07;;;;;;;8.13;2.50;;;;;;;;;;5051735;28;20213;-72
2023/03/13 07:14:33;;;;;;;10.13;2.33;;;;;;;;;;5048165;28;20291;-72
2023/03/13 07:17:00;;;;;;;5.80;2.27;;;;;;;;;;5049327;28;20233;-72
2023/03/13 07:19:27;;;;;;;6.30;2.10;;;;;;;;;;5056289;28;20225;-72
2023/03/13 07:21:54;;;;;;;5.43;2.07;;;;;;;;;;5069696;28;20187;-72
2023/03/13 07:24:20;;;;;;;6.23;2.33;;;;;;;;;;5053774;28;20209;-72
2023/03/13 07:26:46;;;;;;;10.40;2.33;;;;;;;;;;5065326;28;20195;-72
2023/03/13 07:29:14;;;;;;;7.07;2.47;;;;;;;;;;5066662;28;20222;-72
2023/03/13 07:31:40;;;;;;;5.70;2.00;;;;;;;;;;5053611;28;20763;-72
2023/03/13 07:34:06;;;;;;;7.67;2.53;;;;;;;;;;5069015;28;20213;-72
2023/03/13 07:36:34;;;;;;;6.80;2.30;;;;;;;;;;5068056;28;20460;-72
2023/03/13 07:39:00;;;;;;;6.13;2.03;;;;;;;;;;5064445;28;20222;-72
2023/03/13 07:41:26;;;;;;;4.73;2.17;;;;;;;;;;5053357;28;20186;-72
2023/03/13 07:43:53;;;;;;;9.50;2.97;;;;;;;;;;5067782;28;20566;-72
2023/03/13 07:46:20;;;;;;;4.93;3.30;;;;;;;;;;5068530;28;20290;-72
2023/03/13 07:48:47;;;;;;;8.80;3.77;;;;;;;;;;5054411;28;20249;-72
2023/03/13 07:51:14;;;;;;;9.03;3.60;;;;;;;;;;5049354;28;20683;-72
2023/03/13 07:53:40;;;;;;;4.77;2.90;;;;;;;;;;5068667;28;20202;-73
2023/03/13 07:56:08;;;;;;;9.27;3.60;;;;;;;;;;5062696;28;20384;-72
2023/03/13 07:58:35;;;;;;;9.93;3.23;;;;;;;;;;5048533;28;20679;-72
2023/03/13 08:01:07;;;;;;;9.67;4.47;;;;;;;;;;5066070;28;20186;-72
2023/03/13 08:03:35;;;;;;;7.87;4.40;;;;;;;;;;5050902;28;20203;-72
2023/03/13 08:06:02;;;;;;;11.23;4.80;;;;;;;;;;5050284;28;20286;-72
2023/03/13 08:08:29;;;;;;;8.50;4.50;;;;;;;;;;5066993;28;20194;-72
2023/03/13 08:10:59;;;;;;;9.43;4.07;;;;;;;;;;5052417;28;20234;-73
2023/03/13 08:13:25;;;;;;;9.73;4.80;;;;;;;;;;5055936;28;20574;-72
2023/03/13 08:15:52;;;;;;;9.47;4.33;;;;;;;;;;5068161;28;20252;-72
2023/03/13 08:18:18;;;;;;;11.00;4.50;;;;;;;;;;5067248;28;20460;-73
2023/03/13 08:20:46;;;;;;;10.87;4.43;;;;;;;;;;5068408;28;20623;-72
2023/03/13 08:23:15;;;;;;;6.87;3.90;;;;;;;;;;5070000;28;20239;-72
2023/03/13 08:25:42;;;;;;;6.33;4.27;;;;;;;;;;5067971;28;20201;-72
2023/03/13 08:28:09;;;;;;;9.10;5.10;;;;;;;;;;5068323;28;20191;-72
2023/03/13 08:30:36;;;;;;;8.37;4.83;;;;;;;;;;5054758;28;20578;-73
2023/03/13 08:33:02;;;;;;;7.87;4.70;;;;;;;;;;5071840;28;20223;-73
2023/03/13 08:35:29;;;;;;;8.60;4.53;;;;;;;;;;5053066;28;20387;-73
2023/03/13 08:37:56;;;;;;;10.70;4.87;;;;;;;;;;5055463;28;20207;-73
2023/03/13 08:40:22;;;;;;;19.87;11.07;;;;;;;;;;5069568;28;20233;-73
2023/03/13 08:42:49;;;;;;;9.57;5.60;;;;;;;;;;5056226;28;20195;-73
2023/03/13 08:45:15;;;;;;;10.73;4.70;;;;;;;;;;5071743;28;20796;-73
2023/03/13 08:47:41;;;;;;;9.70;4.67;;;;;;;;;;5054534;28;20213;-73
2023/03/13 08:50:08;;;;;;;10.80;4.60;;;;;;;;;;5049953;28;20223;-73
2023/03/13 08:52:34;;;;;;;7.57;4.50;;;;;;;;;;5071109;28;20220;-73
2023/03/13 08:55:02;;;;;;;10.10;5.07;;;;;;;;;;5071237;28;20198;-73
2023/03/13 08:57:28;;;;;;;7.87;4.67;;;;;;;;;;5052808;28;20233;-73
2023/03/13 08:59:55;;;;;;;6.73;5.20;;;;;;;;;;5070451;28;20241;-74
2023/03/13 09:02:21;;;;;;;7.43;5.20;;;;;;;;;;5068270;28;20201;-72
2023/03/13 09:04:48;;;;;;;6.23;4.73;;;;;;;;;;5069943;28;20190;-73
2023/03/13 09:07:14;;;;;;;9.17;4.60;;;;;;;;;;5072154;28;20651;-73
2023/03/13 09:09:40;;;;;;;7.67;4.53;;;;;;;;;;5070214;28;20221;-73
2023/03/13 09:12:09;;;;;;;10.20;4.73;;;;;;;;;;5071599;28;20221;-73
2023/03/13 09:14:35;;;;;;;6.83;4.00;;;;;;;;;;5070179;28;20574;-73
2023/03/13 09:17:02;;;;;;;5.93;4.23;;;;;;;;;;5054353;28;20308;-73
2023/03/13 09:19:29;;;;;;;7.60;4.13;;;;;;;;;;5070653;28;20215;-73
2023/03/13 09:21:57;;;;;;;7.30;4.37;;;;;;;;;;5068992;28;20224;-73
2023/03/13 09:24:23;;;;;;;8.63;4.47;;;;;;;;;;5055466;28;20202;-73
2023/03/13 09:26:51;;;;;;;9.53;4.60;;;;;;;;;;5071537;28;20659;-72
2023/03/13 09:29:18;;;;;;;7.47;4.37;;;;;;;;;;5069751;28;20222;-73
2023/03/13 09:31:45;;;;;;;4.43;3.77;;;;;;;;;;5071405;28;20581;-73
2023/03/13 09:34:11;;;;;;;7.67;4.87;;;;;;;;;;5054089;28;20194;-72
2023/03/13 09:36:37;;;;;;;10.73;4.10;;;;;;;;;;5070599;28;20194;-73
2023/03/13 09:39:03;;;;;;;6.40;4.77;;;;;;;;;;5067551;28;20214;-73
2023/03/13 09:41:33;;;;;;;10.87;5.20;;;;;;;;;;5070508;28;20195;-72
2023/03/13 09:44:02;;;;;;;8.70;5.47;;;;;;;;;;5069510;28;20205;-73
2023/03/13 09:46:35;;;;;;;9.73;5.77;;;;;;;;;;5069797;28;20656;-73
2023/03/13 09:49:04;;;;;;;8.03;4.10;;;;;;;;;;5055306;28;20233;-72
2023/03/13 09:51:31;;;;;;;6.27;3.97;;;;;;;;;;5070037;28;20293;-73
2023/03/13 09:53:59;;;;;;;8.90;4.87;;;;;;;;;;5050776;28;20206;-72
2023/03/13 09:56:30;;;;;;;6.10;4.17;;;;;;;;;;5067720;28;20292;-72
2023/03/13 09:58:58;;;;;;;7.33;4.37;;;;;;;;;;5068595;28;20236;-72
2023/03/13 10:01:27;;;;;;;5.47;4.00;;;;;;;;;;5068862;28;20195;-73
2023/03/13 10:03:58;;;;;;;8.23;4.03;;;;;;;;;;5056863;28;20203;-73
2023/03/13 10:06:25;;;;;;;10.23;4.53;;;;;;;;;;5052386;28;20567;-72
2023/03/13 10:08:52;;;;;;;6.00;3.70;;;;;;;;;;5070409;28;20218;-73
2023/03/13 10:11:23;;;;;;;6.90;3.90;;;;;;;;;;5054909;28;20210;-73
2023/03/13 10:13:52;;;;;;;5.73;3.63;;;;;;;;;;5070340;28;20716;-73
2023/03/13 10:16:22;;;;;;;5.73;3.83;;;;;;;;;;5056045;28;20663;-73
2023/03/13 10:18:52;;;;;;;4.63;3.30;;;;;;;;;;5077192;28;20219;-73
2023/03/13 10:21:21;;;;;;;5.47;3.80;;;;;;;;;;5077369;28;20643;-73
2023/03/13 10:23:50;;;;;;;4.87;3.70;;;;;;;;;;5074138;28;20194;-72
2023/03/13 10:26:19;;;;;;;7.70;3.57;;;;;;;;;;5069489;28;20198;-73
2023/03/13 10:28:45;;;;;;;7.27;3.60;;;;;;;;;;5069860;28;20201;-73
2023/03/13 10:31:14;;;;;;;5.13;3.03;;;;;;;;;;5074949;28;20203;-73
2023/03/13 10:33:42;;;;;;;4.03;3.17;;;;;;;;;;5073371;28;20578;-73
2023/03/13 10:36:09;;;;;;;5.23;2.60;;;;;;;;;;5074294;28;20201;-72
2023/03/13 10:38:45;;;;;;;4.40;2.53;;;;;;;;;;5073078;28;20835;-73
2023/03/13 10:41:19;;;;;;;5.80;3.10;;;;;;;;;;5060133;28;20248;-73
2023/03/13 10:43:50;;;;;;;3.37;3.07;;;;;;;;;;5069389;28;20199;-72
2023/03/13 10:46:24;;;;;;;7.43;2.60;;;;;;;;;;5059239;28;20214;-72
2023/03/13 10:48:53;;;;;;;7.10;2.53;;;;;;;;;;5054098;28;20290;-73
2023/03/13 10:51:21;;;;;;;5.40;3.07;;;;;;;;;;5054804;28;20540;-73
2023/03/13 10:53:50;;;;;;;4.80;2.93;;;;;;;;;;5073105;28;20633;-73
2023/03/13 10:56:19;;;;;;;6.30;2.27;;;;;;;;;;5072371;28;20190;-73
2023/03/13 10:58:46;;;;;;;3.63;2.80;;;;;;;;;;5072964;28;20260;-72
2023/03/13 11:01:18;;;;;;;4.80;2.43;;;;;;;;;;5073370;28;20199;-72
2023/03/13 11:03:44;;;;;;;4.00;2.40;;;;;;;;;;5070115;28;20188;-73
2023/03/13 11:06:22;;;;;;;3.77;2.20;;;;;;;;;;5052802;28;20210;-73
2023/03/13 11:08:50;;;;;;;6.40;2.57;;;;;;;;;;5072508;28;20212;-72
2023/03/13 11:11:17;;;;;;;3.93;2.23;;;;;;;;;;5073080;28;20253;-73
2023/03/13 11:13:44;;;;;;;5.27;2.07;;;;;;;;;;5070080;28;20217;-73
2023/03/13 11:16:17;;;;;;;4.03;1.90;;;;;;;;;;5071333;28;20208;-72
2023/03/13 11:18:49;;;;;;;4.53;2.17;;;;;;;;;;5070763;28;20202;-73
2023/03/13 11:21:21;;;;;;;3.53;2.03;;;;;;;;;;5070601;28;20208;-72
2023/03/13 11:23:49;;;;;;;3.37;1.87;;;;;;;;;;5065144;28;20196;-73
2023/03/13 11:26:19;;;;;;;6.23;2.03;;;;;;;;;;5068233;28;20227;-73
2023/03/13 11:28:50;;;;;;;5.30;2.10;;;;;;;;;;5049046;28;20216;-72
2023/03/13 11:31:19;;;;;;;2.57;1.47;;;;;;;;;;5070999;28;20200;-73
2023/03/13 11:33:52;;;;;;;3.13;1.93;;;;;;;;;;5054362;28;20729;-73
2023/03/13 11:36:20;;;;;;;2.43;1.80;;;;;;;;;;5051021;28;20258;-73
2023/03/13 11:38:48;;;;;;;2.73;1.70;;;;;;;;;;5069389;28;20228;-72
2023/03/13 11:41:24;;;;;;;4.90;2.43;;;;;;;;;;5071065;28;20224;-72
2023/03/13 11:43:56;;;;;;;5.97;2.83;;;;;;;;;;5071035;28;20303;-72
2023/03/13 11:46:28;;;;;;;1.63;1.50;;;;;;;;;;5071298;28;20215;-73
2023/03/13 11:49:03;;;;;;;1.80;1.63;;;;;;;;;;5054030;28;20236;-71
2023/03/13 11:51:35;;;;;;;2.83;1.70;;;;;;;;;;5070074;28;20201;-73
2023/03/13 11:54:10;;;;;;;3.83;1.40;;;;;;;;;;5069670;28;20235;-72
2023/03/13 11:56:41;;;;;;;1.93;1.73;;;;;;;;;;5053807;28;20214;-72
2023/03/13 11:59:16;;;;;;;1.70;1.53;;;;;;;;;;5070814;28;20316;-72
2023/03/13 12:01:45;;;;;;;3.90;1.67;;;;;;;;;;5067321;28;20301;-73
2023/03/13 12:04:16;;;;;;;2.57;1.83;;;;;;;;;;5071898;28;20196;-72
2023/03/13 12:06:44;;;;;;;2.90;1.60;;;;;;;;;;5056947;28;20195;-72
2023/03/13 12:09:13;;;;;;;4.23;1.77;;;;;;;;;;5071271;28;20230;-71
2023/03/13 12:11:44;;;;;;;2.27;1.57;;;;;;;;;;5069702;28;20201;-72
2023/03/13 12:14:13;;;;;;;1.90;1.47;;;;;;;;;;5072243;28;20241;-72
2023/03/13 12:16:41;;;;;;;2.77;1.47;;;;;;;;;;5048963;28;21203;-72
2023/03/13 12:19:09;;;;;;;5.37;2.50;;;;;;;;;;5051300;28;20614;-73
2023/03/13 12:21:38;;;;;;;2.53;1.60;;;;;;;;;;5066727;28;20552;-73
2023/03/13 12:24:06;;;;;;;2.63;1.50;;;;;;;;;;5048331;28;20192;-72
2023/03/13 12:26:35;;;;;;;4.37;1.27;;;;;;;;;;5068432;28;20551;-73
2023/03/13 12:29:06;;;;;;;1.90;1.40;;;;;;;;;;5053279;28;20227;-72
2023/03/13 12:31:34;;;;;;;1.73;1.10;;;;;;;;;;5050811;28;20536;-72
2023/03/13 12:34:04;;;;;;;2.70;0.90;;;;;;;;;;5068676;28;20222;-73
2023/03/13 12:36:33;;;;;;;1.10;1.00;;;;;;;;;;5068559;28;20202;-72
2023/03/13 12:39:06;;;;;;;1.47;0.70;;;;;;;;;;5051214;28;20704;-72
2023/03/13 12:41:37;;;;;;;3.43;0.80;;;;;;;;;;5070111;28;20201;-72
2023/03/13 12:44:08;;;;;;;0.87;0.67;;;;;;;;;;5052769;28;20294;-73
2023/03/13 12:46:40;;;;;;;3.03;0.97;;;;;;;;;;5071635;28;20241;-72
2023/03/13 12:49:26;;;;;;;1.60;0.90;;;;;;;;;;5066773;28;20741;-73
2023/03/13 12:52:01;;;;;;;0.70;0.70;;;;;;;;;;5068004;28;20507;-72
2023/03/13 12:54:42;;;;;;;0.83;0.67;;;;;;;;;;5069947;28;20208;-72
2023/03/13 12:57:15;;;;;;;0.90;0.60;;;;;;;;;;5050295;28;20227;-73
2023/03/13 12:59:44;;;;;;;0.83;0.70;;;;;;;;;;5068951;28;20222;-72
2023/03/13 13:02:15;;;;;;;0.77;0.70;;;;;;;;;;5068846;28;20201;-72
2023/03/13 13:04:42;;;;;;;0.50;0.50;;;;;;;;;;5058702;28;20212;-72
2023/03/13 13:07:19;;;;;;;0.70;0.70;;;;;;;;;;5068051;28;20206;-72
2023/03/13 13:10:00;;;;;;;0.57;0.50;;;;;;;;;;5064444;28;20249;-72
2023/03/13 13:12:29;;;;;;;1.07;0.63;;;;;;;;;;5069800;28;20640;-72
2023/03/13 13:14:58;;;;;;;1.00;0.73;;;;;;;;;;5069357;28;20578;-72
2023/03/13 13:17:40;;;;;;;0.60;0.60;;;;;;;;;;5050800;28;20201;-73
2023/03/13 13:20:25;;;;;;;1.30;0.60;;;;;;;;;;5067260;28;20695;-73
2023/03/13 13:22:51;;;;;;;0.60;0.60;;;;;;;;;;5069340;28;20197;-73
2023/03/13 13:25:28;;;;;;;0.40;0.40;;;;;;;;;;5070500;28;20198;-72
2023/03/13 13:27:55;;;;;;;0.97;0.60;;;;;;;;;;5067880;28;20215;-73
2023/03/13 13:30:30;;;;;;;0.60;0.60;;;;;;;;;;5052027;28;20229;-72
2023/03/13 13:33:17;;;;;;;0.70;0.70;;;;;;;;;;5049528;28;20228;-73
2023/03/13 13:35:43;;;;;;;0.77;0.60;;;;;;;;;;5065114;28;20662;-73
2023/03/13 13:38:38;;;;;;;0.90;0.83;;;;;;;;;;5067480;28;20748;-72
2023/03/13 13:41:26;;;;;;;0.87;0.80;;;;;;;;;;5051056;28;20283;-73
2023/03/13 13:44:11;;;;;;;0.90;0.60;;;;;;;;;;5061724;28;20217;-72
2023/03/13 13:46:44;;;;;;;0.80;0.80;;;;;;;;;;5065839;28;20196;-72
2023/03/13 13:49:14;;;;;;;0.40;0.40;;;;;;;;;;5067299;28;20740;-71
2023/03/13 13:51:41;;;;;;;2.83;0.80;;;;;;;;;;5063598;28;20837;-72
2023/03/13 13:54:31;;;;;;;0.70;0.70;;;;;;;;;;5064456;28;20210;-73
2023/03/13 13:56:58;;;;;;;0.80;0.80;;;;;;;;;;5066246;28;20213;-72
2023/03/13 13:59:30;;;;;;;0.77;0.77;;;;;;;;;;5044394;28;20695;-72
2023/03/13 14:02:16;;;;;;;0.80;0.80;;;;;;;;;;5052324;28;20206;-72
2023/03/13 14:04:43;;;;;;;1.60;0.73;;;;;;;;;;5071463;28;20198;-73
2023/03/13 14:07:12;;;;;;;1.87;0.90;;;;;;;;;;5062064;28;20265;-72
2023/03/13 14:09:44;;;;;;;1.27;0.80;;;;;;;;;;5069389;28;20577;-72
2023/03/13 14:12:25;;;;;;;1.57;0.80;;;;;;;;;;5055160;28;20578;-72
2023/03/13 14:15:05;;;;;;;0.60;0.60;;;;;;;;;;5071526;28;20694;-72
2023/03/13 14:17:37;;;;;;;0.63;0.53;;;;;;;;;;5069223;28;20668;-71
2023/03/13 14:20:07;;;;;;;0.50;0.50;;;;;;;;;;5068451;28;20218;-71
2023/03/13 14:22:44;;;;;;;2.33;0.60;;;;;;;;;;5071729;28;20675;-72
2023/03/13 14:25:11;;;;;;;0.53;0.50;;;;;;;;;;5068461;28;20663;-72
2023/03/13 14:27:42;;;;;;;0.60;0.60;;;;;;;;;;5066593;28;20205;-73
2023/03/13 14:30:09;;;;;;;0.60;0.60;;;;;;;;;;5052104;28;20275;-72
2023/03/13 14:32:37;;;;;;;0.70;0.60;;;;;;;;;;5073976;28;20289;-73
2023/03/13 14:35:04;;;;;;;0.53;0.50;;;;;;;;;;5072882;28;20210;-73
2023/03/13 14:37:34;;;;;;;0.60;0.60;;;;;;;;;;5071398;28;20203;-71
2023/03/13 14:40:05;;;;;;;0.80;0.60;;;;;;;;;;5067319;28;20223;-72
2023/03/13 14:42:37;;;;;;;0.60;0.60;;;;;;;;;;5051328;28;20202;-72
2023/03/13 14:45:12;;;;;;;0.67;0.67;;;;;;;;;;5051493;28;20209;-74
2023/03/13 14:47:40;;;;;;;0.80;0.70;;;;;;;;;;5067863;28;20202;-73
2023/03/13 14:50:10;;;;;;;1.30;0.70;;;;;;;;;;5054488;28;20218;-73
2023/03/13 14:52:38;;;;;;;0.70;0.70;;;;;;;;;;5051573;28;20203;-73
2023/03/13 14:55:07;;;;;;;1.27;0.70;;;;;;;;;;5068595;28;20218;-73
2023/03/13 14:57:34;;;;;;;0.70;0.60;;;;;;;;;;5053437;28;20243;-72
2023/03/13 15:00:21;;;;;;;1.43;0.80;;;;;;;;;;5074494;28;20226;-71